sensor_id;sensor_type;location;lat;lon;timestamp;temperature;humidity
9450;DHT22;4763;48.370;10.874;2024-02-04T00:00:13;6.40;99.90
9450;DHT22;4763;48.370;10.874;2024-02-04T00:02:40;6.40;99.90
9450;DHT22;4763;48.370;10.874;2024-02-04T00:05:07;6.40;99.90
9450;DHT22;4763;48.370;10.874;2024-02-04T00:07:35;6.40;99.90
9450;DHT22;4763;48.370;10.874;2024-02-04T00:10:02;6.40;99.90
9450;DHT22;4763;48.370;10.874;2024-02-04T00:15:05;6.50;99.90
9450;DHT22;4763;48.370;10.874;2024-02-04T00:17:32;6.40;99.90
9450;DHT22;4763;48.370;10.874;2024-02-04T00:20:00;6.30;99.90
9450;DHT22;4763;48.370;10.874;2024-02-04T00:28:48;6.40;99.90
9450;DHT22;4763;48.370;10.874;2024-02-04T00:31:15;6.40;99.90
9450;DHT22;4763;48.370;10.874;2024-02-04T00:33:42;6.40;99.90
9450;DHT22;4763;48.370;10.874;2024-02-04T00:36:08;6.40;99.90
9450;DHT22;4763;48.370;10.874;2024-02-04T00:38:35;6.40;99.90
9450;DHT22;4763;48.370;10.874;2024-02-04T00:41:02;6.50;99.90
9450;DHT22;4763;48.370;10.874;2024-02-04T00:48:41;6.40;99.90
9450;DHT22;4763;48.370;10.874;2024-02-04T00:51:08;6.40;99.90
9450;DHT22;4763;48.370;10.874;2024-02-04T00:53:35;6.40;99.90
9450;DHT22;4763;48.370;10.874;2024-02-04T00:56:03;6.40;99.90
9450;DHT22;4763;48.370;10.874;2024-02-04T00:58:30;6.40;99.90
9450;DHT22;4763;48.370;10.874;2024-02-04T01:00:57;6.40;99.90
9450;DHT22;4763;48.370;10.874;2024-02-04T02:46:31;6.50;99.90
9450;DHT22;4763;48.370;10.874;2024-02-04T02:48:58;6.50;99.90
9450;DHT22;4763;48.370;10.874;2024-02-04T02:51:25;6.50;99.90
9450;DHT22;4763;48.370;10.874;2024-02-04T02:53:55;6.50;99.90
9450;DHT22;4763;48.370;10.874;2024-02-04T02:56:22;6.50;99.90
9450;DHT22;4763;48.370;10.874;2024-02-04T02:58:49;6.50;99.90
9450;DHT22;4763;48.370;10.874;2024-02-04T03:01:16;6.40;99.90
9450;DHT22;4763;48.370;10.874;2024-02-04T03:19:17;6.40;99.90
9450;DHT22;4763;48.370;10.874;2024-02-04T04:02:17;6.40;99.90
9450;DHT22;4763;48.370;10.874;2024-02-04T04:04:44;6.50;99.90
9450;DHT22;4763;48.370;10.874;2024-02-04T04:07:13;6.40;99.90
9450;DHT22;4763;48.370;10.874;2024-02-04T04:09:40;6.40;99.90
9450;DHT22;4763;48.370;10.874;2024-02-04T04:17:22;6.40;99.90
9450;DHT22;4763;48.370;10.874;2024-02-04T04:19:49;6.40;99.90
9450;DHT22;4763;48.370;10.874;2024-02-04T04:22:15;6.40;99.90
9450;DHT22;4763;48.370;10.874;2024-02-04T04:24:42;6.40;99.90
9450;DHT22;4763;48.370;10.874;2024-02-04T04:27:09;6.40;99.90
9450;DHT22;4763;48.370;10.874;2024-02-04T04:29:39;6.40;99.90
9450;DHT22;4763;48.370;10.874;2024-02-04T04:39:54;6.40;99.90
9450;DHT22;4763;48.370;10.874;2024-02-04T05:03:05;6.30;99.90
9450;DHT22;4763;48.370;10.874;2024-02-04T05:05:32;6.30;99.90
9450;DHT22;4763;48.370;10.874;2024-02-04T05:08:01;6.20;99.90
9450;DHT22;4763;48.370;10.874;2024-02-04T05:16:11;6.10;99.90
9450;DHT22;4763;48.370;10.874;2024-02-04T05:18:40;6.10;99.90
9450;DHT22;4763;48.370;10.874;2024-02-04T05:21:06;6.10;99.90
9450;DHT22;4763;48.370;10.874;2024-02-04T05:23:33;6.00;99.90
9450;DHT22;4763;48.370;10.874;2024-02-04T05:26:03;6.10;99.90
9450;DHT22;4763;48.370;10.874;2024-02-04T05:28:30;6.10;99.90
9450;DHT22;4763;48.370;10.874;2024-02-04T05:31:03;6.00;99.90
9450;DHT22;4763;48.370;10.874;2024-02-04T07:30:49;5.60;99.90
9450;DHT22;4763;48.370;10.874;2024-02-04T07:43:38;5.70;99.90
9450;DHT22;4763;48.370;10.874;2024-02-04T07:46:09;5.70;99.90
9450;DHT22;4763;48.370;10.874;2024-02-04T07:48:36;5.70;99.90
9450;DHT22;4763;48.370;10.874;2024-02-04T07:51:04;5.70;99.90
9450;DHT22;4763;48.370;10.874;2024-02-04T07:53:31;5.70;99.90
9450;DHT22;4763;48.370;10.874;2024-02-04T07:55:59;5.70;99.90
9450;DHT22;4763;48.370;10.874;2024-02-04T07:58:32;5.80;99.90
9450;DHT22;4763;48.370;10.874;2024-02-04T08:00:59;5.80;99.90
9450;DHT22;4763;48.370;10.874;2024-02-04T08:03:32;5.90;99.90
9450;DHT22;4763;48.370;10.874;2024-02-04T08:06:02;5.70;99.90
9450;DHT22;4763;48.370;10.874;2024-02-04T08:08:30;5.80;99.90
9450;DHT22;4763;48.370;10.874;2024-02-04T08:10:57;5.80;99.90
9450;DHT22;4763;48.370;10.874;2024-02-04T09:05:32;6.70;99.90
9450;DHT22;4763;48.370;10.874;2024-02-04T09:08:00;6.70;99.90
9450;DHT22;4763;48.370;10.874;2024-02-04T09:10:27;6.60;99.90
9450;DHT22;4763;48.370;10.874;2024-02-04T09:12:54;6.70;99.90
9450;DHT22;4763;48.370;10.874;2024-02-04T09:15:21;6.70;99.90
9450;DHT22;4763;48.370;10.874;2024-02-04T09:17:48;6.70;99.90
9450;DHT22;4763;48.370;10.874;2024-02-04T09:20:15;6.70;99.90
9450;DHT22;4763;48.370;10.874;2024-02-04T09:25:19;6.70;99.90
9450;DHT22;4763;48.370;10.874;2024-02-04T09:27:46;6.70;99.90
9450;DHT22;4763;48.370;10.874;2024-02-04T09:30:16;6.70;99.90
9450;DHT22;4763;48.370;10.874;2024-02-04T09:32:43;6.70;99.90
9450;DHT22;4763;48.370;10.874;2024-02-04T09:35:10;6.80;99.90
9450;DHT22;4763;48.370;10.874;2024-02-04T09:37:38;6.80;99.90
9450;DHT22;4763;48.370;10.874;2024-02-04T09:40:05;6.80;99.90
9450;DHT22;4763;48.370;10.874;2024-02-04T09:42:34;6.80;99.90
9450;DHT22;4763;48.370;10.874;2024-02-04T09:45:01;6.90;99.90
9450;DHT22;4763;48.370;10.874;2024-02-04T09:47:29;6.90;99.90
9450;DHT22;4763;48.370;10.874;2024-02-04T09:49:56;6.90;99.90
9450;DHT22;4763;48.370;10.874;2024-02-04T09:52:28;6.90;99.90
9450;DHT22;4763;48.370;10.874;2024-02-04T09:57:50;7.20;99.90
9450;DHT22;4763;48.370;10.874;2024-02-04T10:00:19;7.20;99.90
9450;DHT22;4763;48.370;10.874;2024-02-04T10:02:47;7.30;99.90
9450;DHT22;4763;48.370;10.874;2024-02-04T10:05:14;7.60;99.90
9450;DHT22;4763;48.370;10.874;2024-02-04T10:07:41;7.60;99.90
9450;DHT22;4763;48.370;10.874;2024-02-04T10:10:09;7.60;99.90
9450;DHT22;4763;48.370;10.874;2024-02-04T10:12:38;7.50;99.90
9450;DHT22;4763;48.370;10.874;2024-02-04T10:15:11;7.40;99.90
9450;DHT22;4763;48.370;10.874;2024-02-04T10:17:42;7.40;99.90
9450;DHT22;4763;48.370;10.874;2024-02-04T10:20:10;7.50;99.90
9450;DHT22;4763;48.370;10.874;2024-02-04T10:22:37;7.40;99.90
9450;DHT22;4763;48.370;10.874;2024-02-04T10:25:08;7.50;99.90
9450;DHT22;4763;48.370;10.874;2024-02-04T10:27:37;7.50;99.90
9450;DHT22;4763;48.370;10.874;2024-02-04T10:30:05;7.50;99.90
9450;DHT22;4763;48.370;10.874;2024-02-04T10:32:34;7.40;99.90
9450;DHT22;4763;48.370;10.874;2024-02-04T10:35:01;7.30;99.90
9450;DHT22;4763;48.370;10.874;2024-02-04T10:37:28;7.30;99.90
9450;DHT22;4763;48.370;10.874;2024-02-04T10:39:55;7.50;99.90
9450;DHT22;4763;48.370;10.874;2024-02-04T10:42:24;7.60;99.90
9450;DHT22;4763;48.370;10.874;2024-02-04T10:44:52;7.60;99.90
9450;DHT22;4763;48.370;10.874;2024-02-04T10:47:26;7.60;99.90
9450;DHT22;4763;48.370;10.874;2024-02-04T10:50:07;7.60;99.90
9450;DHT22;4763;48.370;10.874;2024-02-04T10:52:37;7.50;99.90
9450;DHT22;4763;48.370;10.874;2024-02-04T10:55:07;7.40;99.90
9450;DHT22;4763;48.370;10.874;2024-02-04T10:57:35;7.30;99.90
9450;DHT22;4763;48.370;10.874;2024-02-04T11:00:03;7.40;99.90
9450;DHT22;4763;48.370;10.874;2024-02-04T11:02:35;7.50;99.90
9450;DHT22;4763;48.370;10.874;2024-02-04T11:05:05;7.60;99.90
9450;DHT22;4763;48.370;10.874;2024-02-04T11:07:34;7.60;99.90
9450;DHT22;4763;48.370;10.874;2024-02-04T11:10:01;7.70;99.90
9450;DHT22;4763;48.370;10.874;2024-02-04T11:12:29;7.80;99.90
9450;DHT22;4763;48.370;10.874;2024-02-04T11:15:00;8.00;99.90
9450;DHT22;4763;48.370;10.874;2024-02-04T11:18:02;8.00;99.90
9450;DHT22;4763;48.370;10.874;2024-02-04T11:21:03;7.90;99.90
9450;DHT22;4763;48.370;10.874;2024-02-04T11:23:42;8.00;99.90
9450;DHT22;4763;48.370;10.874;2024-02-04T11:26:13;8.00;99.90
9450;DHT22;4763;48.370;10.874;2024-02-04T11:28:41;8.10;99.90
9450;DHT22;4763;48.370;10.874;2024-02-04T11:31:14;8.30;99.90
9450;DHT22;4763;48.370;10.874;2024-02-04T11:33:42;8.30;99.90
9450;DHT22;4763;48.370;10.874;2024-02-04T11:36:12;8.50;99.90
9450;DHT22;4763;48.370;10.874;2024-02-04T11:38:40;8.60;99.90
9450;DHT22;4763;48.370;10.874;2024-02-04T11:41:09;8.70;99.90
9450;DHT22;4763;48.370;10.874;2024-02-04T11:43:36;8.80;99.90
9450;DHT22;4763;48.370;10.874;2024-02-04T11:46:04;8.70;99.90
9450;DHT22;4763;48.370;10.874;2024-02-04T11:48:33;8.80;99.90
9450;DHT22;4763;48.370;10.874;2024-02-04T11:51:04;8.80;99.90
9450;DHT22;4763;48.370;10.874;2024-02-04T11:53:33;8.80;99.90
9450;DHT22;4763;48.370;10.874;2024-02-04T11:56:00;8.90;99.90
9450;DHT22;4763;48.370;10.874;2024-02-04T11:58:29;9.00;99.90
9450;DHT22;4763;48.370;10.874;2024-02-04T12:00:56;9.10;99.90
9450;DHT22;4763;48.370;10.874;2024-02-04T12:03:31;9.20;99.90
9450;DHT22;4763;48.370;10.874;2024-02-04T12:05:59;9.30;99.90
9450;DHT22;4763;48.370;10.874;2024-02-04T12:08:27;9.30;99.90
9450;DHT22;4763;48.370;10.874;2024-02-04T12:10:55;9.30;99.90
9450;DHT22;4763;48.370;10.874;2024-02-04T12:13:23;9.30;99.90
9450;DHT22;4763;48.370;10.874;2024-02-04T12:15:50;9.40;99.90
9450;DHT22;4763;48.370;10.874;2024-02-04T12:18:17;9.40;99.90
9450;DHT22;4763;48.370;10.874;2024-02-04T12:20:46;9.50;99.90
9450;DHT22;4763;48.370;10.874;2024-02-04T12:23:14;9.60;99.90
9450;DHT22;4763;48.370;10.874;2024-02-04T12:25:40;9.90;99.90
9450;DHT22;4763;48.370;10.874;2024-02-04T12:28:09;10.20;99.90
9450;DHT22;4763;48.370;10.874;2024-02-04T12:30:36;10.40;99.90
9450;DHT22;4763;48.370;10.874;2024-02-04T12:33:05;10.40;99.90
9450;DHT22;4763;48.370;10.874;2024-02-04T12:35:32;10.50;99.90
9450;DHT22;4763;48.370;10.874;2024-02-04T12:38:00;10.40;99.90
9450;DHT22;4763;48.370;10.874;2024-02-04T12:40:30;10.20;99.90
9450;DHT22;4763;48.370;10.874;2024-02-04T12:42:58;10.10;99.90
9450;DHT22;4763;48.370;10.874;2024-02-04T12:45:28;10.20;99.90
9450;DHT22;4763;48.370;10.874;2024-02-04T12:47:57;10.30;99.90
9450;DHT22;4763;48.370;10.874;2024-02-04T12:50:25;10.60;99.90
9450;DHT22;4763;48.370;10.874;2024-02-04T12:53:02;10.90;99.90
9450;DHT22;4763;48.370;10.874;2024-02-04T12:55:29;10.90;99.90
9450;DHT22;4763;48.370;10.874;2024-02-04T12:58:04;10.70;99.90
9450;DHT22;4763;48.370;10.874;2024-02-04T13:00:33;10.70;99.90
9450;DHT22;4763;48.370;10.874;2024-02-04T13:03:00;10.70;99.90
9450;DHT22;4763;48.370;10.874;2024-02-04T13:05:27;10.70;99.90
9450;DHT22;4763;48.370;10.874;2024-02-04T13:07:57;11.00;99.90
9450;DHT22;4763;48.370;10.874;2024-02-04T13:10:28;11.10;99.90
9450;DHT22;4763;48.370;10.874;2024-02-04T13:13:00;11.10;99.90
9450;DHT22;4763;48.370;10.874;2024-02-04T13:15:27;10.80;99.90
9450;DHT22;4763;48.370;10.874;2024-02-04T13:17:56;10.90;99.90
9450;DHT22;4763;48.370;10.874;2024-02-04T13:20:23;11.00;99.90
9450;DHT22;4763;48.370;10.874;2024-02-04T13:22:50;10.80;99.90
9450;DHT22;4763;48.370;10.874;2024-02-04T13:25:19;10.80;99.90
9450;DHT22;4763;48.370;10.874;2024-02-04T13:27:46;10.70;99.90
9450;DHT22;4763;48.370;10.874;2024-02-04T13:30:13;10.60;99.90
9450;DHT22;4763;48.370;10.874;2024-02-04T13:32:40;10.60;99.90
9450;DHT22;4763;48.370;10.874;2024-02-04T13:35:09;10.60;99.90
9450;DHT22;4763;48.370;10.874;2024-02-04T13:37:36;10.60;99.90
9450;DHT22;4763;48.370;10.874;2024-02-04T13:40:03;10.40;99.90
9450;DHT22;4763;48.370;10.874;2024-02-04T13:42:31;10.30;99.90
9450;DHT22;4763;48.370;10.874;2024-02-04T13:44:59;10.10;99.90
9450;DHT22;4763;48.370;10.874;2024-02-04T13:47:26;10.10;99.90
9450;DHT22;4763;48.370;10.874;2024-02-04T13:49:52;10.20;99.90
9450;DHT22;4763;48.370;10.874;2024-02-04T13:52:21;10.20;99.90
9450;DHT22;4763;48.370;10.874;2024-02-04T13:54:47;10.10;99.90
9450;DHT22;4763;48.370;10.874;2024-02-04T13:57:14;10.10;99.90
9450;DHT22;4763;48.370;10.874;2024-02-04T13:59:41;10.10;99.90
9450;DHT22;4763;48.370;10.874;2024-02-04T14:02:08;10.00;99.90
9450;DHT22;4763;48.370;10.874;2024-02-04T14:04:35;10.00;99.90
9450;DHT22;4763;48.370;10.874;2024-02-04T14:07:02;10.00;99.90
9450;DHT22;4763;48.370;10.874;2024-02-04T14:09:30;10.00;99.90
9450;DHT22;4763;48.370;10.874;2024-02-04T14:11:57;9.90;99.90
9450;DHT22;4763;48.370;10.874;2024-02-04T14:14:24;9.90;99.90
9450;DHT22;4763;48.370;10.874;2024-02-04T14:16:50;10.00;99.90
9450;DHT22;4763;48.370;10.874;2024-02-04T14:19:17;9.90;99.90
9450;DHT22;4763;48.370;10.874;2024-02-04T14:21:43;10.00;99.90
9450;DHT22;4763;48.370;10.874;2024-02-04T14:24:10;10.00;99.90
9450;DHT22;4763;48.370;10.874;2024-02-04T14:26:39;10.00;99.90
9450;DHT22;4763;48.370;10.874;2024-02-04T14:29:07;10.00;99.90
9450;DHT22;4763;48.370;10.874;2024-02-04T14:31:34;10.00;99.90
9450;DHT22;4763;48.370;10.874;2024-02-04T14:34:01;10.10;99.90
9450;DHT22;4763;48.370;10.874;2024-02-04T14:36:28;10.00;99.90
9450;DHT22;4763;48.370;10.874;2024-02-04T14:38:55;10.00;99.90
9450;DHT22;4763;48.370;10.874;2024-02-04T14:41:23;10.00;99.90
9450;DHT22;4763;48.370;10.874;2024-02-04T14:43:51;10.00;99.90
9450;DHT22;4763;48.370;10.874;2024-02-04T14:46:18;10.00;99.90
9450;DHT22;4763;48.370;10.874;2024-02-04T14:48:45;10.00;99.90
9450;DHT22;4763;48.370;10.874;2024-02-04T14:51:12;10.00;99.90
9450;DHT22;4763;48.370;10.874;2024-02-04T14:53:39;10.00;99.90
9450;DHT22;4763;48.370;10.874;2024-02-04T14:56:06;10.00;99.90
9450;DHT22;4763;48.370;10.874;2024-02-04T14:58:35;10.00;99.90
9450;DHT22;4763;48.370;10.874;2024-02-04T15:01:04;10.00;99.90
9450;DHT22;4763;48.370;10.874;2024-02-04T15:03:30;10.00;99.90
9450;DHT22;4763;48.370;10.874;2024-02-04T15:05:57;9.90;99.90
9450;DHT22;4763;48.370;10.874;2024-02-04T15:08:24;10.00;99.90
9450;DHT22;4763;48.370;10.874;2024-02-04T15:10:51;10.00;99.90
9450;DHT22;4763;48.370;10.874;2024-02-04T15:13:18;10.00;99.90
9450;DHT22;4763;48.370;10.874;2024-02-04T15:15:45;10.00;99.90
9450;DHT22;4763;48.370;10.874;2024-02-04T15:18:14;10.00;99.90
9450;DHT22;4763;48.370;10.874;2024-02-04T15:20:41;10.00;99.90
9450;DHT22;4763;48.370;10.874;2024-02-04T15:23:09;10.00;99.90
9450;DHT22;4763;48.370;10.874;2024-02-04T15:25:36;10.00;99.90
9450;DHT22;4763;48.370;10.874;2024-02-04T15:28:04;10.00;99.90
9450;DHT22;4763;48.370;10.874;2024-02-04T15:30:32;10.00;99.90
9450;DHT22;4763;48.370;10.874;2024-02-04T15:32:59;9.90;99.90
9450;DHT22;4763;48.370;10.874;2024-02-04T15:35:28;9.90;99.90
9450;DHT22;4763;48.370;10.874;2024-02-04T15:37:55;9.90;99.90
9450;DHT22;4763;48.370;10.874;2024-02-04T15:40:24;9.80;99.90
9450;DHT22;4763;48.370;10.874;2024-02-04T15:42:50;9.80;99.90
9450;DHT22;4763;48.370;10.874;2024-02-04T15:45:17;9.80;99.90
9450;DHT22;4763;48.370;10.874;2024-02-04T15:47:48;9.80;99.90
9450;DHT22;4763;48.370;10.874;2024-02-04T15:50:17;9.70;99.90
9450;DHT22;4763;48.370;10.874;2024-02-04T15:52:47;9.90;99.90
9450;DHT22;4763;48.370;10.874;2024-02-04T15:55:15;9.90;99.90
9450;DHT22;4763;48.370;10.874;2024-02-04T15:57:47;9.80;99.90
9450;DHT22;4763;48.370;10.874;2024-02-04T16:00:15;9.70;99.90
9450;DHT22;4763;48.370;10.874;2024-02-04T16:02:48;9.80;99.90
9450;DHT22;4763;48.370;10.874;2024-02-04T16:05:15;9.80;99.90
9450;DHT22;4763;48.370;10.874;2024-02-04T16:07:45;9.80;99.90
9450;DHT22;4763;48.370;10.874;2024-02-04T16:10:14;9.70;99.90
9450;DHT22;4763;48.370;10.874;2024-02-04T16:12:52;9.70;99.90
9450;DHT22;4763;48.370;10.874;2024-02-04T16:15:22;9.60;99.90
9450;DHT22;4763;48.370;10.874;2024-02-04T16:17:50;9.60;99.90
9450;DHT22;4763;48.370;10.874;2024-02-04T16:20:17;9.60;99.90
9450;DHT22;4763;48.370;10.874;2024-02-04T16:22:46;9.60;99.90
9450;DHT22;4763;48.370;10.874;2024-02-04T16:25:13;9.60;99.90
9450;DHT22;4763;48.370;10.874;2024-02-04T16:27:41;9.50;99.90
9450;DHT22;4763;48.370;10.874;2024-02-04T16:30:09;9.50;99.90
9450;DHT22;4763;48.370;10.874;2024-02-04T16:32:36;9.60;99.90
9450;DHT22;4763;48.370;10.874;2024-02-04T16:35:04;9.50;99.90
9450;DHT22;4763;48.370;10.874;2024-02-04T16:37:31;9.40;99.90
9450;DHT22;4763;48.370;10.874;2024-02-04T16:39:59;9.50;99.90
9450;DHT22;4763;48.370;10.874;2024-02-04T16:42:26;9.40;99.90
9450;DHT22;4763;48.370;10.874;2024-02-04T16:44:55;9.40;99.90
9450;DHT22;4763;48.370;10.874;2024-02-04T16:47:22;9.30;99.90
9450;DHT22;4763;48.370;10.874;2024-02-04T16:49:49;9.30;99.90
9450;DHT22;4763;48.370;10.874;2024-02-04T16:52:15;9.30;99.90
9450;DHT22;4763;48.370;10.874;2024-02-04T16:54:42;9.30;99.90
9450;DHT22;4763;48.370;10.874;2024-02-04T16:57:11;9.30;99.90
9450;DHT22;4763;48.370;10.874;2024-02-04T16:59:38;9.30;99.90
9450;DHT22;4763;48.370;10.874;2024-02-04T17:02:10;9.30;99.90
9450;DHT22;4763;48.370;10.874;2024-02-04T17:04:39;9.20;99.90
9450;DHT22;4763;48.370;10.874;2024-02-04T17:07:06;9.20;99.90
9450;DHT22;4763;48.370;10.874;2024-02-04T17:09:34;9.10;99.90
9450;DHT22;4763;48.370;10.874;2024-02-04T17:12:01;9.10;99.90
9450;DHT22;4763;48.370;10.874;2024-02-04T17:14:30;9.10;99.90
9450;DHT22;4763;48.370;10.874;2024-02-04T17:17:01;9.00;99.90
9450;DHT22;4763;48.370;10.874;2024-02-04T17:19:38;9.00;99.90
9450;DHT22;4763;48.370;10.874;2024-02-04T17:22:11;9.00;99.90
9450;DHT22;4763;48.370;10.874;2024-02-04T17:24:46;8.90;99.90
9450;DHT22;4763;48.370;10.874;2024-02-04T17:27:16;8.90;99.90
9450;DHT22;4763;48.370;10.874;2024-02-04T17:29:44;8.90;99.90
9450;DHT22;4763;48.370;10.874;2024-02-04T17:32:13;8.90;99.90
9450;DHT22;4763;48.370;10.874;2024-02-04T17:34:40;9.00;99.90
9450;DHT22;4763;48.370;10.874;2024-02-04T17:37:08;8.90;99.90
9450;DHT22;4763;48.370;10.874;2024-02-04T17:39:36;9.00;99.90
9450;DHT22;4763;48.370;10.874;2024-02-04T17:42:05;9.00;99.90
9450;DHT22;4763;48.370;10.874;2024-02-04T17:44:35;9.00;99.90
9450;DHT22;4763;48.370;10.874;2024-02-04T17:47:04;9.00;99.90
9450;DHT22;4763;48.370;10.874;2024-02-04T17:49:30;8.90;99.90
9450;DHT22;4763;48.370;10.874;2024-02-04T17:51:57;8.90;99.90
9450;DHT22;4763;48.370;10.874;2024-02-04T17:54:24;8.80;99.90
9450;DHT22;4763;48.370;10.874;2024-02-04T17:56:50;8.90;99.90
9450;DHT22;4763;48.370;10.874;2024-02-04T17:59:18;8.80;99.90
9450;DHT22;4763;48.370;10.874;2024-02-04T18:01:44;8.80;99.90
9450;DHT22;4763;48.370;10.874;2024-02-04T18:04:12;8.70;99.90
9450;DHT22;4763;48.370;10.874;2024-02-04T18:06:40;8.80;99.90
9450;DHT22;4763;48.370;10.874;2024-02-04T18:09:07;8.70;99.90
9450;DHT22;4763;48.370;10.874;2024-02-04T18:11:35;8.70;99.90
9450;DHT22;4763;48.370;10.874;2024-02-04T18:14:02;8.70;99.90
9450;DHT22;4763;48.370;10.874;2024-02-04T18:16:33;8.70;99.90
9450;DHT22;4763;48.370;10.874;2024-02-04T18:19:00;8.70;99.90
9450;DHT22;4763;48.370;10.874;2024-02-04T18:21:29;8.50;99.90
9450;DHT22;4763;48.370;10.874;2024-02-04T18:23:55;8.50;99.90
9450;DHT22;4763;48.370;10.874;2024-02-04T18:26:26;8.50;99.90
9450;DHT22;4763;48.370;10.874;2024-02-04T18:28:53;8.40;99.90
9450;DHT22;4763;48.370;10.874;2024-02-04T18:31:22;8.40;99.90
9450;DHT22;4763;48.370;10.874;2024-02-04T18:33:49;8.40;99.90
9450;DHT22;4763;48.370;10.874;2024-02-04T18:36:16;8.40;99.90
9450;DHT22;4763;48.370;10.874;2024-02-04T18:38:48;8.30;99.90
9450;DHT22;4763;48.370;10.874;2024-02-04T18:41:16;8.30;99.90
9450;DHT22;4763;48.370;10.874;2024-02-04T18:43:43;8.20;99.90
9450;DHT22;4763;48.370;10.874;2024-02-04T18:46:11;8.20;99.90
9450;DHT22;4763;48.370;10.874;2024-02-04T18:48:38;8.20;99.90
9450;DHT22;4763;48.370;10.874;2024-02-04T18:51:06;8.30;99.90
9450;DHT22;4763;48.370;10.874;2024-02-04T18:53:33;8.30;99.90
9450;DHT22;4763;48.370;10.874;2024-02-04T18:56:05;8.20;99.90
9450;DHT22;4763;48.370;10.874;2024-02-04T18:58:31;8.10;99.90
9450;DHT22;4763;48.370;10.874;2024-02-04T19:00:59;8.10;99.90
9450;DHT22;4763;48.370;10.874;2024-02-04T19:03:26;8.20;99.90
9450;DHT22;4763;48.370;10.874;2024-02-04T19:05:53;8.10;99.90
9450;DHT22;4763;48.370;10.874;2024-02-04T19:08:20;8.10;99.90
9450;DHT22;4763;48.370;10.874;2024-02-04T19:10:47;8.10;99.90
9450;DHT22;4763;48.370;10.874;2024-02-04T19:13:16;8.10;99.90
9450;DHT22;4763;48.370;10.874;2024-02-04T19:15:43;8.10;99.90
9450;DHT22;4763;48.370;10.874;2024-02-04T19:18:10;8.00;99.90
9450;DHT22;4763;48.370;10.874;2024-02-04T19:20:37;8.10;99.90
9450;DHT22;4763;48.370;10.874;2024-02-04T19:23:04;8.10;99.90
9450;DHT22;4763;48.370;10.874;2024-02-04T19:25:32;8.00;99.90
9450;DHT22;4763;48.370;10.874;2024-02-04T19:27:59;8.00;99.90
9450;DHT22;4763;48.370;10.874;2024-02-04T19:30:30;8.00;99.90
9450;DHT22;4763;48.370;10.874;2024-02-04T19:32:57;7.90;99.90
9450;DHT22;4763;48.370;10.874;2024-02-04T19:35:26;8.00;99.90
9450;DHT22;4763;48.370;10.874;2024-02-04T19:37:53;8.00;99.90
9450;DHT22;4763;48.370;10.874;2024-02-04T19:40:21;8.00;99.90
9450;DHT22;4763;48.370;10.874;2024-02-04T19:42:48;8.00;99.90
9450;DHT22;4763;48.370;10.874;2024-02-04T19:45:16;7.90;99.90
9450;DHT22;4763;48.370;10.874;2024-02-04T19:47:46;7.90;99.90
9450;DHT22;4763;48.370;10.874;2024-02-04T19:50:13;7.80;99.90
9450;DHT22;4763;48.370;10.874;2024-02-04T19:52:40;7.80;99.90
9450;DHT22;4763;48.370;10.874;2024-02-04T19:55:07;7.90;99.90
9450;DHT22;4763;48.370;10.874;2024-02-04T19:57:42;7.80;99.90
9450;DHT22;4763;48.370;10.874;2024-02-04T20:00:09;7.80;99.90
9450;DHT22;4763;48.370;10.874;2024-02-04T20:02:37;7.80;99.90
9450;DHT22;4763;48.370;10.874;2024-02-04T20:05:10;7.80;99.90
9450;DHT22;4763;48.370;10.874;2024-02-04T20:07:37;7.80;99.90
9450;DHT22;4763;48.370;10.874;2024-02-04T20:10:04;7.90;99.90
9450;DHT22;4763;48.370;10.874;2024-02-04T20:12:32;7.80;99.90
9450;DHT22;4763;48.370;10.874;2024-02-04T20:14:58;7.80;99.90
9450;DHT22;4763;48.370;10.874;2024-02-04T20:17:26;7.80;99.90
9450;DHT22;4763;48.370;10.874;2024-02-04T20:19:54;7.90;99.90
9450;DHT22;4763;48.370;10.874;2024-02-04T20:22:24;7.80;99.90
9450;DHT22;4763;48.370;10.874;2024-02-04T20:24:51;7.80;99.90
9450;DHT22;4763;48.370;10.874;2024-02-04T20:27:18;7.80;99.90
9450;DHT22;4763;48.370;10.874;2024-02-04T20:29:44;7.80;99.90
9450;DHT22;4763;48.370;10.874;2024-02-04T20:32:11;7.80;99.90
9450;DHT22;4763;48.370;10.874;2024-02-04T20:34:38;7.80;99.90
9450;DHT22;4763;48.370;10.874;2024-02-04T20:37:05;7.70;99.90
9450;DHT22;4763;48.370;10.874;2024-02-04T20:39:34;7.80;99.90
9450;DHT22;4763;48.370;10.874;2024-02-04T20:42:01;7.80;99.90
9450;DHT22;4763;48.370;10.874;2024-02-04T20:44:28;7.80;99.90
9450;DHT22;4763;48.370;10.874;2024-02-04T20:46:55;7.80;99.90
9450;DHT22;4763;48.370;10.874;2024-02-04T20:49:21;7.90;99.90
9450;DHT22;4763;48.370;10.874;2024-02-04T20:51:48;7.80;99.90
9450;DHT22;4763;48.370;10.874;2024-02-04T20:54:15;7.80;99.90
9450;DHT22;4763;48.370;10.874;2024-02-04T20:56:43;7.80;99.90
9450;DHT22;4763;48.370;10.874;2024-02-04T20:59:10;7.80;99.90
9450;DHT22;4763;48.370;10.874;2024-02-04T21:01:36;7.80;99.90
9450;DHT22;4763;48.370;10.874;2024-02-04T21:04:04;7.80;99.90
9450;DHT22;4763;48.370;10.874;2024-02-04T21:06:31;7.90;99.90
9450;DHT22;4763;48.370;10.874;2024-02-04T21:09:00;7.80;99.90
9450;DHT22;4763;48.370;10.874;2024-02-04T21:11:28;7.80;99.90
9450;DHT22;4763;48.370;10.874;2024-02-04T21:13:56;7.70;99.90
9450;DHT22;4763;48.370;10.874;2024-02-04T21:16:24;7.70;99.90
9450;DHT22;4763;48.370;10.874;2024-02-04T21:18:50;7.80;99.90
9450;DHT22;4763;48.370;10.874;2024-02-04T21:21:17;7.90;99.90
9450;DHT22;4763;48.370;10.874;2024-02-04T21:23:44;7.90;99.90
9450;DHT22;4763;48.370;10.874;2024-02-04T21:26:11;7.90;99.90
9450;DHT22;4763;48.370;10.874;2024-02-04T21:28:38;7.90;99.90
9450;DHT22;4763;48.370;10.874;2024-02-04T21:31:07;7.90;99.90
9450;DHT22;4763;48.370;10.874;2024-02-04T21:33:34;8.00;99.90
9450;DHT22;4763;48.370;10.874;2024-02-04T21:36:01;8.00;99.90
9450;DHT22;4763;48.370;10.874;2024-02-04T21:38:28;8.00;99.90
9450;DHT22;4763;48.370;10.874;2024-02-04T21:40:55;8.00;99.90
9450;DHT22;4763;48.370;10.874;2024-02-04T21:43:23;8.10;99.90
9450;DHT22;4763;48.370;10.874;2024-02-04T21:45:49;8.00;99.90
9450;DHT22;4763;48.370;10.874;2024-02-04T21:48:17;8.10;99.90
9450;DHT22;4763;48.370;10.874;2024-02-04T21:50:46;8.10;99.90
9450;DHT22;4763;48.370;10.874;2024-02-04T21:53:13;8.00;99.90
9450;DHT22;4763;48.370;10.874;2024-02-04T21:55:41;7.90;99.90
9450;DHT22;4763;48.370;10.874;2024-02-04T21:58:09;8.00;99.90
9450;DHT22;4763;48.370;10.874;2024-02-04T22:00:36;8.00;99.90
9450;DHT22;4763;48.370;10.874;2024-02-04T22:03:03;8.00;99.90
9450;DHT22;4763;48.370;10.874;2024-02-04T22:05:31;7.90;99.90
9450;DHT22;4763;48.370;10.874;2024-02-04T22:08:00;7.80;99.90
9450;DHT22;4763;48.370;10.874;2024-02-04T22:10:27;7.90;99.90
9450;DHT22;4763;48.370;10.874;2024-02-04T22:12:54;7.90;99.90
9450;DHT22;4763;48.370;10.874;2024-02-04T22:15:21;8.00;99.90
9450;DHT22;4763;48.370;10.874;2024-02-04T22:17:48;7.90;99.90
9450;DHT22;4763;48.370;10.874;2024-02-04T22:20:14;7.80;99.90
9450;DHT22;4763;48.370;10.874;2024-02-04T22:22:42;7.80;99.90
9450;DHT22;4763;48.370;10.874;2024-02-04T22:25:09;7.80;99.90
9450;DHT22;4763;48.370;10.874;2024-02-04T22:27:36;7.70;99.90
9450;DHT22;4763;48.370;10.874;2024-02-04T22:30:04;7.70;99.90
9450;DHT22;4763;48.370;10.874;2024-02-04T22:32:33;7.70;99.90
9450;DHT22;4763;48.370;10.874;2024-02-04T22:35:00;7.70;99.90
9450;DHT22;4763;48.370;10.874;2024-02-04T22:37:26;7.70;99.90
9450;DHT22;4763;48.370;10.874;2024-02-04T22:39:55;7.60;99.90
9450;DHT22;4763;48.370;10.874;2024-02-04T22:42:21;7.70;99.90